In Rescue
 
Open Full Screen Window  High Contrast Mode
December 15, 2019 6:05 PM EST
Weather Information
Wind Direction
  ---
Wind Speed
  00 kt (0 mph)
Wind Gust
  00 kt (0 mph)
Altimeter
30.15 in
Visibility
10 SM
Temperature
-02° C
28° F
Dewpoint
-06° C
21° F
Humidity
74%
Sky Condition
Clear
VFR

METAR KAXV 152305Z AUTO 00000KT 10SM CLR M02/M06 A3015 RMK AO2

FAA Disclaimer: The data displayed is for advisory purposes only and is not to be used for flight planning or operations.